createdAt,value
2018-12-04T00:00:51.330Z,89.06
2018-12-04T00:03:20.666Z,89.26
2018-12-04T00:05:51.312Z,89.25
2018-12-04T00:08:20.114Z,89.05
2018-12-04T00:10:48.830Z,89.14
2018-12-04T00:13:17.583Z,89.20
2018-12-04T00:15:46.325Z,89.20
2018-12-04T00:18:15.355Z,88.82
2018-12-04T00:20:45.879Z,88.77
2018-12-04T00:23:15.994Z,88.44
2018-12-04T00:25:45.375Z,88.65
2018-12-04T00:28:14.138Z,88.19
2018-12-04T00:30:43.594Z,88.15
2018-12-04T00:33:12.957Z,88.00
2018-12-04T00:35:42.469Z,87.92
2018-12-04T00:38:11.605Z,87.64
2018-12-04T00:40:40.348Z,87.30
2018-12-04T00:43:09.119Z,86.79
2018-12-04T00:45:38.453Z,86.88
2018-12-04T00:48:07.208Z,86.60
2018-12-04T00:50:36.740Z,86.39
2018-12-04T00:53:09.621Z,86.28
2018-12-04T00:55:41.053Z,86.46
2018-12-04T00:58:10.315Z,86.27
2018-12-04T01:00:39.033Z,86.26
2018-12-04T01:03:08.464Z,86.36
2018-12-04T01:05:37.966Z,86.63
2018-12-04T01:08:08.218Z,86.89
2018-12-04T01:10:37.031Z,86.84
2018-12-04T01:13:05.819Z,87.04
2018-12-04T01:15:34.521Z,87.29
2018-12-04T01:18:03.680Z,86.88
2018-12-04T01:20:32.586Z,86.84
2018-12-04T01:23:04.220Z,87.16
2018-12-04T01:25:33.628Z,87.01
2018-12-04T01:28:02.360Z,86.92
2018-12-04T01:30:32.330Z,87.03
2018-12-04T01:33:01.324Z,86.89
2018-12-04T01:35:31.118Z,87.05
2018-12-04T01:38:02.080Z,87.30
2018-12-04T01:40:30.839Z,87.27
2018-12-04T01:42:59.638Z,87.50
2018-12-04T01:45:29.009Z,87.53
2018-12-04T01:47:57.882Z,87.34
2018-12-04T01:50:27.313Z,87.60
2018-12-04T01:52:56.134Z,87.91
2018-12-04T01:55:24.921Z,87.78
2018-12-04T01:57:53.658Z,88.18
2018-12-04T02:00:22.544Z,87.81
2018-12-04T02:02:52.109Z,87.67
2018-12-04T02:05:21.757Z,88.06
2018-12-04T02:07:50.677Z,88.18
2018-12-04T02:10:19.521Z,88.18
2018-12-04T02:12:48.329Z,88.12
2018-12-04T02:15:17.418Z,87.95
2018-12-04T02:17:46.119Z,87.68
2018-12-04T02:20:14.864Z,87.96
2018-12-04T02:22:43.605Z,87.77
2018-12-04T02:25:16.821Z,87.81
2018-12-04T02:27:45.546Z,87.97
2018-12-04T02:30:15.127Z,87.76
2018-12-04T02:32:43.842Z,87.85
2018-12-04T02:35:13.559Z,87.52
2018-12-04T02:37:42.297Z,86.92
2018-12-04T02:40:16.112Z,86.27
2018-12-04T02:42:44.851Z,86.18
2018-12-04T02:45:15.338Z,85.52
2018-12-04T02:47:44.057Z,85.92
2018-12-04T02:50:13.617Z,86.17
2018-12-04T02:52:42.369Z,86.31
2018-12-04T02:55:12.380Z,86.57
2018-12-04T02:57:41.125Z,86.78
2018-12-04T03:00:10.127Z,86.93
2018-12-04T03:02:39.517Z,87.17
2018-12-04T03:05:12.215Z,87.17
2018-12-04T03:07:40.991Z,87.22
2018-12-04T03:10:09.853Z,86.90
2018-12-04T03:12:39.260Z,86.86
2018-12-04T03:15:08.281Z,87.13
2018-12-04T03:17:38.073Z,87.21
2018-12-04T03:20:07.130Z,86.82
2018-12-04T03:22:35.890Z,86.73
2018-12-04T03:25:06.374Z,86.36
2018-12-04T03:27:35.144Z,86.07
2018-12-04T03:30:05.452Z,85.46
2018-12-04T03:32:34.291Z,84.67
2018-12-04T03:35:04.668Z,84.49
2018-12-04T03:37:34.009Z,84.07
2018-12-04T03:40:03.603Z,84.04
2018-12-04T03:42:37.748Z,83.90
2018-12-04T03:45:07.685Z,83.64
2018-12-04T03:47:37.372Z,83.49
2018-12-04T03:50:07.012Z,83.38
2018-12-04T03:52:35.719Z,83.37
2018-12-04T03:55:04.999Z,83.31
2018-12-04T03:57:38.677Z,83.66
2018-12-04T04:00:07.989Z,83.20
2018-12-04T04:02:37.681Z,83.47
2018-12-04T04:05:07.216Z,83.17
2018-12-04T04:07:36.691Z,83.47
2018-12-04T04:10:06.795Z,83.19
2018-12-04T04:12:35.503Z,83.07
2018-12-04T04:15:05.228Z,83.31
2018-12-04T04:20:20.361Z,83.19
2018-12-04T04:22:50.283Z,83.33
2018-12-04T04:25:19.385Z,83.51
2018-12-04T04:27:48.171Z,83.30
2018-12-04T04:30:17.663Z,83.35
2018-12-04T04:32:46.351Z,83.20
2018-12-04T04:35:15.814Z,83.22
2018-12-04T04:37:44.602Z,83.35
2018-12-04T04:40:13.930Z,83.70
2018-12-04T04:42:42.666Z,83.58
2018-12-04T04:45:11.874Z,83.57
2018-12-04T04:47:41.280Z,83.66
2018-12-04T04:50:10.849Z,83.83
2018-12-04T04:52:39.581Z,83.80
2018-12-04T04:55:08.318Z,83.87
2018-12-04T04:57:37.925Z,83.65
2018-12-04T05:00:07.046Z,83.46
2018-12-04T05:02:36.807Z,83.72
2018-12-04T05:05:06.466Z,83.88
2018-12-04T05:07:37.185Z,84.08
2018-12-04T05:10:07.323Z,84.22
2018-12-04T05:12:36.059Z,84.35
2018-12-04T05:15:05.844Z,84.58
2018-12-04T05:17:34.982Z,85.31
2018-12-04T05:20:04.798Z,85.10
2018-12-04T05:22:34.006Z,85.25
2018-12-04T05:25:04.181Z,85.23
2018-12-04T05:27:33.127Z,85.44
2018-12-04T05:30:02.723Z,85.35
2018-12-04T05:32:31.547Z,85.20
2018-12-04T05:35:01.113Z,84.83
2018-12-04T05:37:30.045Z,84.89
2018-12-04T05:39:59.417Z,84.90
2018-12-04T05:42:28.151Z,85.20
2018-12-04T05:44:57.668Z,85.35
2018-12-04T05:47:27.185Z,85.35
2018-12-04T05:49:55.975Z,85.28
2018-12-04T05:52:25.355Z,85.47
2018-12-04T05:54:54.570Z,85.34
2018-12-04T05:57:24.603Z,85.45
2018-12-04T05:59:53.436Z,85.28
2018-12-04T06:02:22.955Z,85.53
2018-12-04T06:04:53.506Z,85.50
2018-12-04T06:07:22.269Z,85.60
2018-12-04T06:09:56.190Z,85.49
2018-12-04T06:12:24.960Z,85.67
2018-12-04T06:14:53.942Z,85.42
2018-12-04T06:17:22.774Z,85.39
2018-12-04T06:19:51.544Z,85.22
2018-12-04T06:22:20.462Z,85.19
2018-12-04T06:24:51.631Z,85.18
2018-12-04T06:27:20.519Z,85.17
2018-12-04T06:29:50.242Z,84.80
2018-12-04T06:32:19.021Z,84.90
2018-12-04T06:34:48.419Z,84.50
2018-12-04T06:37:17.569Z,84.53
2018-12-04T06:39:47.025Z,84.25
2018-12-04T06:42:15.809Z,84.12
2018-12-04T06:44:46.873Z,83.95
2018-12-04T06:47:16.634Z,83.78
2018-12-04T06:49:45.454Z,83.54
2018-12-04T06:52:14.821Z,83.43
2018-12-04T06:54:43.581Z,83.57
2018-12-04T06:57:12.287Z,83.33
2018-12-04T06:59:41.579Z,83.52
2018-12-04T07:02:12.411Z,83.21
2018-12-04T07:04:41.770Z,83.35
2018-12-04T07:07:10.497Z,83.42
2018-12-04T07:09:40.118Z,83.33
2018-12-04T07:12:09.772Z,83.35
2018-12-04T07:14:38.573Z,83.48
2018-12-04T07:17:10.205Z,83.48
2018-12-04T07:19:38.967Z,83.33
2018-12-04T07:22:07.787Z,83.64
2018-12-04T07:24:37.278Z,83.56
2018-12-04T07:27:06.014Z,83.43
2018-12-04T07:29:35.313Z,83.45
2018-12-04T07:32:04.826Z,83.58
2018-12-04T07:34:34.465Z,83.72
2018-12-04T07:37:03.330Z,83.88
2018-12-04T07:39:32.516Z,83.78
2018-12-04T07:42:01.372Z,84.23
2018-12-04T07:44:30.874Z,84.49
2018-12-04T07:47:01.400Z,84.55
2018-12-04T07:49:30.201Z,84.52
2018-12-04T07:52:00.022Z,84.53
2018-12-04T07:54:28.742Z,84.60
2018-12-04T07:56:57.530Z,84.14
2018-12-04T07:59:27.137Z,84.39
2018-12-04T08:01:56.653Z,83.92
2018-12-04T08:04:26.383Z,83.40
2018-12-04T08:06:55.098Z,83.25
2018-12-04T08:09:23.882Z,82.91
2018-12-04T08:11:52.662Z,81.86
2018-12-04T08:14:22.173Z,82.12
2018-12-04T08:16:51.140Z,81.91
2018-12-04T08:19:21.776Z,80.97
2018-12-04T08:21:50.667Z,80.03
2018-12-04T08:24:20.325Z,79.92
2018-12-04T08:26:50.125Z,79.47
2018-12-04T08:29:19.353Z,78.72
2018-12-04T08:31:48.106Z,78.38
2018-12-04T08:34:17.669Z,78.26
2018-12-04T08:36:46.381Z,78.12
2018-12-04T08:39:15.639Z,78.12
2018-12-04T08:41:44.424Z,78.09
2018-12-04T08:44:13.860Z,78.27
2018-12-04T08:46:43.258Z,77.95
2018-12-04T08:49:11.958Z,78.09
2018-12-04T08:51:42.151Z,78.42
2018-12-04T08:54:10.830Z,78.99
2018-12-04T08:56:39.839Z,78.81
2018-12-04T08:59:09.210Z,79.26
2018-12-04T09:01:39.518Z,79.79
2018-12-04T09:04:08.872Z,79.76
2018-12-04T09:06:38.167Z,79.62
2018-12-04T09:09:09.799Z,79.37
2018-12-04T09:11:38.549Z,79.45
2018-12-04T09:14:07.348Z,79.54
2018-12-04T09:16:36.291Z,79.78
2018-12-04T09:19:05.159Z,79.11
2018-12-04T09:21:34.204Z,78.08
2018-12-04T09:24:04.027Z,78.20
2018-12-04T09:26:33.087Z,78.32
2018-12-04T09:29:03.188Z,78.33
2018-12-04T09:31:32.121Z,78.45
2018-12-04T09:34:01.937Z,77.61
2018-12-04T09:36:30.655Z,77.98
2018-12-04T09:39:00.293Z,78.33
2018-12-04T09:41:29.132Z,78.67
2018-12-04T09:43:58.580Z,78.49
2018-12-04T09:46:28.447Z,78.65
2018-12-04T09:48:57.130Z,78.72
2018-12-04T09:51:27.358Z,79.53
2018-12-04T09:53:56.089Z,79.43
2018-12-04T09:56:25.593Z,79.84
2018-12-04T09:58:54.384Z,79.89
2018-12-04T10:01:23.165Z,78.92
2018-12-04T10:03:52.726Z,80.02
2018-12-04T10:06:21.693Z,79.34
2018-12-04T10:08:55.358Z,79.03
2018-12-04T10:11:24.045Z,78.65
2018-12-04T10:13:53.124Z,78.75
2018-12-04T10:16:21.910Z,79.15
2018-12-04T10:18:51.040Z,79.17
2018-12-04T10:21:19.729Z,78.79
2018-12-04T10:23:52.145Z,78.56
2018-12-04T10:26:20.923Z,78.62
2018-12-04T10:28:51.055Z,79.27
2018-12-04T10:31:19.749Z,79.09
2018-12-04T10:34:52.565Z,79.55
2018-12-04T10:37:21.977Z,79.93
2018-12-04T10:39:51.537Z,81.55
2018-12-04T10:42:20.320Z,81.16
2018-12-04T10:44:49.948Z,81.54
2018-12-04T10:47:20.362Z,81.96
2018-12-04T10:49:49.156Z,82.12
2018-12-04T10:52:18.735Z,81.82
2018-12-04T10:54:47.444Z,82.04
2018-12-04T10:57:16.175Z,82.46
2018-12-04T10:59:44.916Z,82.29
2018-12-04T11:02:19.749Z,82.71
2018-12-04T11:04:49.881Z,82.20
2018-12-04T11:07:18.651Z,81.66
2018-12-04T11:09:47.352Z,81.77
2018-12-04T11:12:16.090Z,81.66
2018-12-04T11:14:44.824Z,81.66
2018-12-04T11:17:13.641Z,81.91
2018-12-04T11:19:42.417Z,82.08
2018-12-04T11:23:15.255Z,82.77
2018-12-04T11:25:44.017Z,82.66
2018-12-04T11:28:12.697Z,83.03
2018-12-04T11:30:42.214Z,83.31
2018-12-04T11:33:10.940Z,82.95
2018-12-04T11:35:40.401Z,83.27
2018-12-04T11:38:09.067Z,83.58
2018-12-04T11:40:40.773Z,83.75
2018-12-04T11:43:10.463Z,83.95
2018-12-04T11:45:40.050Z,83.74
2018-12-04T11:48:08.749Z,84.14
2018-12-04T11:50:38.091Z,84.01
2018-12-04T11:53:06.805Z,84.40
2018-12-04T11:58:16.593Z,84.62
2018-12-04T12:00:45.549Z,84.84
2018-12-04T12:03:15.038Z,84.70
2018-12-04T12:05:44.329Z,85.13
2018-12-04T12:08:13.038Z,85.45
2018-12-04T12:10:41.931Z,85.50
2018-12-04T12:13:10.679Z,85.20
2018-12-04T12:15:39.337Z,85.22
2018-12-04T12:18:09.051Z,85.62
2018-12-04T12:20:38.132Z,85.85
2018-12-04T12:23:08.433Z,85.80
2018-12-04T12:25:37.133Z,84.94
2018-12-04T12:28:05.881Z,84.78
2018-12-04T12:30:35.932Z,84.68
2018-12-04T12:33:04.743Z,84.39
2018-12-04T12:35:34.327Z,84.74
2018-12-04T12:38:03.650Z,84.89
2018-12-04T12:40:33.209Z,84.95
2018-12-04T12:43:01.988Z,85.15
2018-12-04T12:45:31.378Z,85.07
2018-12-04T12:48:00.804Z,85.43
2018-12-04T12:50:30.216Z,85.79
2018-12-04T12:52:59.063Z,85.48
2018-12-04T12:55:27.698Z,85.72
2018-12-04T12:57:56.669Z,85.96
2018-12-04T13:00:25.492Z,86.14
2018-12-04T13:02:55.064Z,85.92
2018-12-04T13:05:24.283Z,85.99
2018-12-04T13:07:53.016Z,86.15
2018-12-04T13:11:24.396Z,86.41
2018-12-04T13:13:53.264Z,85.85
2018-12-04T13:16:22.232Z,86.12
2018-12-04T13:18:51.036Z,86.05
2018-12-04T13:21:19.760Z,85.73
2018-12-04T13:23:49.126Z,86.10
2018-12-04T13:26:17.845Z,85.87
2018-12-04T13:28:47.187Z,86.53
2018-12-04T13:31:15.937Z,86.46
2018-12-04T13:33:45.710Z,86.68
2018-12-04T13:36:14.390Z,86.78
2018-12-04T13:38:43.929Z,86.18
2018-12-04T13:41:12.656Z,86.46
2018-12-04T13:43:42.101Z,85.69
2018-12-04T13:46:11.364Z,86.08
2018-12-04T13:48:40.048Z,86.71
2018-12-04T13:51:09.672Z,87.25
2018-12-04T13:53:38.357Z,86.24
2018-12-04T13:56:07.165Z,86.12
2018-12-04T13:58:36.547Z,85.92
2018-12-04T14:01:06.490Z,86.72
2018-12-04T14:03:36.125Z,86.75
2018-12-04T14:06:04.882Z,85.05
2018-12-04T14:08:33.888Z,84.09
2018-12-04T14:11:02.938Z,84.01
2018-12-04T14:13:31.805Z,83.12
2018-12-04T14:16:00.651Z,81.64
2018-12-04T14:18:29.437Z,80.31
2018-12-04T14:20:58.304Z,79.27
2018-12-04T14:23:28.166Z,79.03
2018-12-04T14:25:57.145Z,78.53
2018-12-04T14:28:25.963Z,77.98
2018-12-04T14:30:55.150Z,78.35
2018-12-04T14:33:23.982Z,78.53
2018-12-04T14:35:53.575Z,78.91
2018-12-04T14:38:24.616Z,79.56
2018-12-04T14:40:54.550Z,80.27
2018-12-04T14:43:24.345Z,80.60
2018-12-04T14:45:54.600Z,81.33
2018-12-04T14:48:24.318Z,81.58
2018-12-04T14:50:53.961Z,81.91
2018-12-04T14:53:23.400Z,82.21
2018-12-04T14:55:52.207Z,82.41
2018-12-04T14:58:21.602Z,82.61
2018-12-04T15:00:50.355Z,83.77
2018-12-04T15:03:20.421Z,84.29
2018-12-04T15:05:49.965Z,84.75
2018-12-04T15:08:18.665Z,85.50
2018-12-04T15:10:47.433Z,85.87
2018-12-04T15:13:16.313Z,86.24
2018-12-04T15:15:45.111Z,86.75
2018-12-04T15:18:14.288Z,86.94
2018-12-04T15:20:43.013Z,87.19
2018-12-04T15:23:13.299Z,87.61
2018-12-04T15:25:42.074Z,87.03
2018-12-04T15:28:11.491Z,87.48
2018-12-04T15:30:41.062Z,87.37
2018-12-04T15:33:09.898Z,87.50
2018-12-04T15:35:39.528Z,87.50
2018-12-04T15:38:08.659Z,87.39
2018-12-04T15:40:38.166Z,87.15
2018-12-04T15:43:08.600Z,87.37
2018-12-04T15:45:38.096Z,87.00
2018-12-04T15:48:07.220Z,87.04
2018-12-04T15:50:36.692Z,86.80
2018-12-04T15:53:06.105Z,87.04
2018-12-04T15:55:35.600Z,86.93
2018-12-04T16:00:50.307Z,87.04
2018-12-04T16:03:19.706Z,87.02
2018-12-04T16:05:48.818Z,87.49
2018-12-04T16:08:17.649Z,87.41
2018-12-04T16:10:46.589Z,87.63
2018-12-04T16:13:16.727Z,87.93
2018-12-04T16:15:45.518Z,87.74
2018-12-04T16:18:14.495Z,88.50
2018-12-04T16:20:43.237Z,87.93
2018-12-04T16:23:13.241Z,87.82
2018-12-04T16:25:41.988Z,87.77
2018-12-04T16:28:10.676Z,87.48
2018-12-04T16:30:40.130Z,87.90
2018-12-04T16:33:08.993Z,87.85
2018-12-04T16:35:38.274Z,87.95
2018-12-04T16:38:07.747Z,88.57
2018-12-04T16:40:37.251Z,88.59
2018-12-04T16:43:06.344Z,88.42
2018-12-04T16:45:36.312Z,88.47
2018-12-04T16:48:05.329Z,88.44
2018-12-04T16:50:35.123Z,88.26
2018-12-04T16:53:03.968Z,88.67
2018-12-04T16:55:32.788Z,88.73
2018-12-04T16:58:01.598Z,89.08
2018-12-04T17:00:32.007Z,88.59
2018-12-04T17:03:02.453Z,88.68
2018-12-04T17:05:31.960Z,88.56
2018-12-04T17:08:00.673Z,88.62
2018-12-04T17:10:29.409Z,89.29
2018-12-04T17:12:58.201Z,89.02
2018-12-04T17:15:26.943Z,89.02
2018-12-04T17:17:55.751Z,89.40
2018-12-04T17:20:24.693Z,89.86
2018-12-04T17:22:55.150Z,89.90
2018-12-04T17:25:24.126Z,90.14
2018-12-04T17:27:52.908Z,90.56
2018-12-04T17:30:22.534Z,91.15
2018-12-04T17:32:51.273Z,90.14
2018-12-04T17:35:20.682Z,90.27
2018-12-04T17:37:49.970Z,90.26
2018-12-04T17:40:19.190Z,90.38
2018-12-04T17:42:48.242Z,90.61
2018-12-04T17:45:17.545Z,90.99
2018-12-04T17:47:46.824Z,90.58
2018-12-04T17:50:16.145Z,90.93
2018-12-04T17:52:44.858Z,91.38
2018-12-04T17:55:13.577Z,91.18
2018-12-04T17:57:42.331Z,91.63
2018-12-04T18:00:13.269Z,91.74
2018-12-04T18:02:42.675Z,91.67
2018-12-04T18:05:11.790Z,91.61
2018-12-04T18:07:40.488Z,91.34
2018-12-04T18:10:09.503Z,91.46
2018-12-04T18:12:38.364Z,92.03
2018-12-04T18:15:07.862Z,92.04
2018-12-04T18:17:36.984Z,91.78
2018-12-04T18:20:06.477Z,92.21
2018-12-04T18:22:36.032Z,91.94
2018-12-04T18:25:05.569Z,92.72
2018-12-04T18:30:16.819Z,92.31
2018-12-04T18:32:45.630Z,92.08
2018-12-04T18:35:14.957Z,92.44
2018-12-04T18:37:43.751Z,92.31
2018-12-04T18:40:13.708Z,92.58
2018-12-04T18:42:42.504Z,92.70
2018-12-04T18:45:12.246Z,92.40
2018-12-04T18:47:41.742Z,92.31
2018-12-04T18:50:12.075Z,92.49
2018-12-04T18:52:41.284Z,92.37
2018-12-04T18:55:12.390Z,92.68
2018-12-04T18:57:41.213Z,92.93
2018-12-04T19:00:10.885Z,93.00
2018-12-04T19:02:40.249Z,92.44
2018-12-04T19:05:09.896Z,92.55
2018-12-04T19:07:38.618Z,92.73
2018-12-04T19:10:07.461Z,92.84
2018-12-04T19:12:36.477Z,92.89
2018-12-04T19:15:06.134Z,92.43
2018-12-04T19:17:35.535Z,92.39
2018-12-04T19:20:05.023Z,92.36
2018-12-04T19:22:35.195Z,92.28
2018-12-04T19:25:05.688Z,91.56
2018-12-04T19:27:35.721Z,91.24
2018-12-04T19:30:07.428Z,90.53
2018-12-04T19:32:37.974Z,89.53
2018-12-04T19:35:08.410Z,89.76
2018-12-04T19:37:37.221Z,89.46
2018-12-04T19:40:09.215Z,89.49
2018-12-04T19:42:41.489Z,88.00
2018-12-04T19:45:10.935Z,88.33
2018-12-04T19:47:40.260Z,88.04
2018-12-04T19:50:10.560Z,87.45
2018-12-04T19:52:39.315Z,87.64
2018-12-04T19:55:08.378Z,87.59
2018-12-04T19:57:37.183Z,87.47
2018-12-04T20:00:08.295Z,86.80
2018-12-04T20:02:37.646Z,86.81
2018-12-04T20:05:07.280Z,87.20
2018-12-04T20:07:38.038Z,87.14
2018-12-04T20:10:07.578Z,87.67
2018-12-04T20:12:36.461Z,87.48
2018-12-04T20:15:06.838Z,87.36
2018-12-04T20:17:37.100Z,87.21
2018-12-04T20:20:06.256Z,87.00
2018-12-04T20:22:36.993Z,87.11
2018-12-04T20:25:07.984Z,86.58
2018-12-04T20:27:36.984Z,86.27
2018-12-04T20:30:07.882Z,85.31
2018-12-04T20:32:36.914Z,84.88
2018-12-04T20:35:08.254Z,84.17
2018-12-04T20:37:36.953Z,82.95
2018-12-04T20:40:06.964Z,82.34
2018-12-04T20:42:36.289Z,81.64
2018-12-04T20:45:06.400Z,80.66
2018-12-04T20:47:36.255Z,80.01
2018-12-04T20:50:07.408Z,80.16
2018-12-04T20:52:36.748Z,79.38
2018-12-04T20:55:08.876Z,78.87
2018-12-04T20:57:37.643Z,78.45
2018-12-04T21:00:09.412Z,77.86
2018-12-04T21:02:39.305Z,77.95
2018-12-04T21:05:08.873Z,78.30
2018-12-04T21:07:37.600Z,77.22
2018-12-04T21:10:06.948Z,77.74
2018-12-04T21:12:36.941Z,77.01
2018-12-04T21:15:06.873Z,77.25
2018-12-04T21:17:36.253Z,77.08
2018-12-04T21:20:05.819Z,76.21
2018-12-04T21:22:34.925Z,76.87
2018-12-04T21:25:04.705Z,76.57
2018-12-04T21:27:40.262Z,77.04
2018-12-04T21:30:15.766Z,76.77
2018-12-04T21:32:49.564Z,76.41
2018-12-04T21:35:27.727Z,76.61
2018-12-04T21:38:01.717Z,76.87
2018-12-04T21:40:38.520Z,76.65
2018-12-04T21:43:12.545Z,76.57
2018-12-04T21:45:47.256Z,77.00
2018-12-04T21:48:16.968Z,77.69
2018-12-04T21:50:46.473Z,77.00
2018-12-04T21:53:15.337Z,76.76
2018-12-04T21:55:44.055Z,77.41
2018-12-04T21:58:13.188Z,77.48
2018-12-04T22:00:42.597Z,77.56
2018-12-04T22:03:12.099Z,77.69
2018-12-04T22:05:41.774Z,78.24
2018-12-04T22:08:10.769Z,77.23
2018-12-04T22:10:39.525Z,77.45
2018-12-04T22:13:08.380Z,77.65
2018-12-04T22:15:37.129Z,77.68
2018-12-04T22:18:06.332Z,76.76
2018-12-04T22:20:36.524Z,77.14
2018-12-04T22:23:06.505Z,76.89
2018-12-04T22:25:36.341Z,76.74
2018-12-04T22:28:06.440Z,76.89
2018-12-04T22:30:36.360Z,76.97
2018-12-04T22:33:06.478Z,76.66
2018-12-04T22:35:36.456Z,76.64
2018-12-04T22:38:05.678Z,76.96
2018-12-04T22:40:35.755Z,76.54
2018-12-04T22:43:05.426Z,76.69
2018-12-04T22:45:35.579Z,76.32
2018-12-04T22:48:05.017Z,76.17
2018-12-04T22:50:34.601Z,76.10
2018-12-04T22:53:03.487Z,76.42
2018-12-04T22:55:33.873Z,76.57
2018-12-04T22:58:02.914Z,76.25
2018-12-04T23:00:40.357Z,76.40
2018-12-04T23:03:10.020Z,76.89
2018-12-04T23:05:40.696Z,77.09
2018-12-04T23:08:09.532Z,76.72
2018-12-04T23:10:38.392Z,77.04
2018-12-04T23:13:07.246Z,77.21
2018-12-04T23:15:38.373Z,77.79
2018-12-04T23:18:07.490Z,77.82
2018-12-04T23:23:29.814Z,77.29
2018-12-04T23:25:58.714Z,77.40
2018-12-04T23:28:27.534Z,76.77
2018-12-04T23:30:57.072Z,76.34
2018-12-04T23:33:25.829Z,76.47
2018-12-04T23:35:55.376Z,76.25
2018-12-04T23:38:25.295Z,75.95
2018-12-04T23:40:54.184Z,75.39
2018-12-04T23:43:24.058Z,75.24
2018-12-04T23:45:53.469Z,75.56
2018-12-04T23:48:22.330Z,75.21
2018-12-04T23:50:51.863Z,75.14
2018-12-04T23:53:20.763Z,75.58
2018-12-04T23:55:49.580Z,75.52
2018-12-04T23:58:19.723Z,75.67
